Terminal Aerodrome Forecast
Issued by NWS

Home | Current Version | Previous Version | Text Only | Print | Product List | Glossary On
Versions: 1 2 3 4 5 6 7 8 9 10 11 12 13 14 15 16 17 18 19 20 21 22 23 24 25 26 27 28 29 30 31 32 33 34
726
FTUS45 KGJT 261140
TAFDRO
TAF
KDRO 261140Z 2612/2712 00000KT P6SM SCT060 BKN100
     FM261800 29006KT P6SM SCT080 BKN110
     FM262100 29010KT P6SM VCTS BKN080CB BKN110
     FM270200 31007KT P6SM SCT120
     FM270500 02004KT P6SM SCT120=

USA.gov is the U.S. government's official web portal to all federal, state and local government web resources and services.